Fearisville, Kentucky
Current Conditions -  °F | °C
As of 10:35 AM on Saturday 22 Nov 2014 (Local Time) from KFGX Reporting Station
Overcast Overcast  
Wind Chill: 45°   Ceiling: 10000
Heat Index: 50°   Visibility: 10mi
Dew Point: 30°   Wind: 14mph
Humidity: 47%   Direction: 210°SSW
Pressure: 30.31"   Gusts: 17mph
Location:  38.4929°N, 83.3898°W
Report Text: KFGX 221535Z AUTO 21012G15KT 10SM SCT075 OVC100 10/M01 A3031 RMK AO2 T00991010
Loading
Personal Weather Stations






























Interactive Weather Map New forecast layout! Learn more

10-Day Weather Forecast

Advertisements
Track Severe Weather on mobile